Terminal Aerodrome Forecast
Issued by NWS

Home | Current Version | Previous Version | Text Only | Print | Product List | Glossary On
Versions: 1 2 3 4 5 6 7 8 9 10 11 12 13 14 15
091
FTUS45 KABQ 250530
TAFSAF
TAF
KSAF 250530Z 2506/2606 04010KT P6SM VCSH BKN090
      TEMPO 2506/2507 VRB10G20KT -SHRA BKN080
     FM250800 02008KT P6SM SCT130
     FM251900 17011KT P6SM SCT080
     FM260000 14015KT P6SM VCSH BKN080
     FM260500 12011KT P6SM SCT100 BKN140=

USA.gov is the U.S. government's official web portal to all federal, state and local government web resources and services.